createdAt,value
2019-05-30T00:00:17.977Z,99.99
2019-05-30T00:00:56.107Z,99.99
2019-05-30T00:01:56.663Z,99.99
2019-05-30T00:02:56.850Z,99.99
2019-05-30T00:03:56.429Z,99.99
2019-05-30T00:04:56.533Z,99.99
2019-05-30T00:05:56.720Z,99.99
2019-05-30T00:06:56.975Z,99.99
2019-05-30T00:07:56.570Z,99.99
2019-05-30T00:08:56.754Z,99.99
2019-05-30T00:09:56.694Z,99.99
2019-05-30T00:10:56.786Z,99.99
2019-05-30T00:11:56.890Z,99.99
2019-05-30T00:12:57.122Z,99.99
2019-05-30T00:13:57.057Z,99.99
2019-05-30T00:14:56.921Z,99.99
2019-05-30T00:15:56.996Z,99.99
2019-05-30T00:16:57.055Z,99.99
2019-05-30T00:17:56.774Z,99.99
2019-05-30T00:18:57.074Z,99.99
2019-05-30T00:19:57.206Z,99.99
2019-05-30T00:20:57.139Z,99.99
2019-05-30T00:21:57.156Z,99.99
2019-05-30T00:22:57.043Z,99.99
2019-05-30T00:23:56.130Z,99.99
2019-05-30T00:24:56.077Z,99.99
2019-05-30T00:25:57.357Z,99.99
2019-05-30T00:26:56.226Z,99.99
2019-05-30T00:27:56.886Z,99.99
2019-05-30T00:28:56.207Z,99.99
2019-05-30T00:29:55.802Z,99.99
2019-05-30T00:30:56.356Z,99.99
2019-05-30T00:31:55.786Z,99.99
2019-05-30T00:32:57.117Z,99.99
2019-05-30T00:33:56.042Z,99.99
2019-05-30T00:34:56.040Z,99.99
2019-05-30T00:35:56.019Z,99.99
2019-05-30T00:36:56.041Z,99.99
2019-05-30T00:37:55.760Z,99.99
2019-05-30T00:38:55.990Z,99.99
2019-05-30T00:39:55.831Z,99.99
2019-05-30T00:40:56.022Z,99.99
2019-05-30T00:41:56.100Z,99.99
2019-05-30T00:42:55.967Z,99.99
2019-05-30T00:43:55.914Z,99.99
2019-05-30T00:44:55.961Z,99.99
2019-05-30T00:45:55.964Z,99.99
2019-05-30T00:46:56.120Z,99.99
2019-05-30T00:47:56.023Z,99.99
2019-05-30T00:48:56.260Z,99.99
2019-05-30T00:49:56.238Z,99.99
2019-05-30T00:50:56.331Z,99.99
2019-05-30T00:51:56.408Z,99.99
2019-05-30T00:52:56.394Z,99.99
2019-05-30T00:53:56.459Z,99.99
2019-05-30T00:54:56.423Z,99.99
2019-05-30T00:55:56.669Z,99.99
2019-05-30T00:56:56.530Z,99.99
2019-05-30T00:57:56.663Z,99.99
2019-05-30T00:58:56.474Z,99.99
2019-05-30T00:59:56.564Z,99.99
2019-05-30T01:00:56.735Z,99.99
2019-05-30T01:01:56.577Z,99.99
2019-05-30T01:02:59.256Z,99.99
2019-05-30T01:03:56.686Z,99.99
2019-05-30T01:04:56.933Z,99.99
2019-05-30T01:05:56.673Z,99.99
2019-05-30T01:06:56.836Z,99.99
2019-05-30T01:07:56.652Z,99.99
2019-05-30T01:08:59.049Z,99.99
2019-05-30T01:09:56.813Z,99.99
2019-05-30T01:10:56.879Z,99.99
2019-05-30T01:11:56.913Z,99.99
2019-05-30T01:12:56.835Z,99.99
2019-05-30T01:13:56.939Z,99.99
2019-05-30T01:14:56.871Z,99.99
2019-05-30T01:15:56.829Z,99.99
2019-05-30T01:16:56.969Z,99.99
2019-05-30T01:17:56.934Z,99.99
2019-05-30T01:18:56.923Z,99.99
2019-05-30T01:19:56.757Z,99.99
2019-05-30T01:20:56.940Z,99.99
2019-05-30T01:21:57.044Z,99.99
2019-05-30T01:22:56.954Z,99.99
2019-05-30T01:23:57.110Z,99.99
2019-05-30T01:24:56.919Z,99.99
2019-05-30T01:25:56.041Z,99.99
2019-05-30T01:26:55.710Z,99.99
2019-05-30T01:27:55.721Z,99.99
2019-05-30T01:28:55.696Z,99.99
2019-05-30T01:29:55.700Z,99.99
2019-05-30T01:31:07.847Z,99.99
2019-05-30T01:31:55.696Z,99.99
2019-05-30T01:32:55.673Z,99.99
2019-05-30T01:33:55.697Z,99.99
2019-05-30T01:34:55.422Z,99.99
2019-05-30T01:35:55.660Z,99.99
2019-05-30T01:36:55.658Z,99.99
2019-05-30T01:37:55.565Z,99.99
2019-05-30T01:38:55.636Z,99.99
2019-05-30T01:39:55.381Z,99.99
2019-05-30T01:40:55.667Z,99.99
2019-05-30T01:41:55.375Z,99.99
2019-05-30T01:42:55.370Z,99.99
2019-05-30T01:43:55.626Z,99.99
2019-05-30T01:44:55.351Z,99.99
2019-05-30T01:45:55.604Z,99.99
2019-05-30T01:46:55.346Z,99.99
2019-05-30T01:47:55.590Z,99.99
2019-05-30T01:48:55.581Z,99.99
2019-05-30T01:49:55.330Z,99.99
2019-05-30T01:50:55.318Z,99.99
2019-05-30T01:51:55.560Z,99.99
2019-05-30T01:52:55.566Z,99.99
2019-05-30T01:53:55.544Z,99.99
2019-05-30T01:54:55.538Z,99.99
2019-05-30T01:55:55.281Z,99.99
2019-05-30T01:56:55.540Z,99.99
2019-05-30T01:57:55.289Z,99.99
2019-05-30T01:58:55.508Z,99.99
2019-05-30T01:59:55.509Z,99.99
2019-05-30T02:00:55.248Z,99.99
2019-05-30T02:01:55.498Z,99.99
2019-05-30T02:02:55.263Z,99.99
2019-05-30T02:03:55.493Z,99.99
2019-05-30T02:04:55.470Z,99.99
2019-05-30T02:05:55.523Z,99.99
2019-05-30T02:06:55.459Z,99.99
2019-05-30T02:07:55.460Z,99.99
2019-05-30T02:08:55.534Z,99.99
2019-05-30T02:09:55.450Z,99.99
2019-05-30T02:10:55.448Z,99.99
2019-05-30T02:11:55.444Z,99.99
2019-05-30T02:12:55.446Z,99.99
2019-05-30T02:13:55.421Z,99.99
2019-05-30T02:14:55.411Z,99.99
2019-05-30T02:15:55.402Z,99.99
2019-05-30T02:16:55.394Z,99.99
2019-05-30T02:17:55.402Z,99.99
2019-05-30T02:18:55.410Z,99.99
2019-05-30T02:19:55.380Z,99.99
2019-05-30T02:20:55.134Z,99.99
2019-05-30T02:21:55.118Z,99.99
2019-05-30T02:22:55.373Z,99.99
2019-05-30T02:23:55.363Z,99.99
2019-05-30T02:24:55.146Z,99.99
2019-05-30T02:25:55.345Z,99.99
2019-05-30T02:26:55.336Z,99.99
2019-05-30T02:27:55.128Z,99.99
2019-05-30T02:28:55.327Z,99.99
2019-05-30T02:29:55.331Z,99.99
2019-05-30T02:30:55.333Z,99.99
2019-05-30T02:31:55.304Z,99.99
2019-05-30T02:32:55.140Z,99.99
2019-05-30T02:33:55.310Z,99.99
2019-05-30T02:34:55.303Z,99.99
2019-05-30T02:35:55.291Z,99.99
2019-05-30T02:36:55.273Z,99.99
2019-05-30T02:37:55.050Z,99.99
2019-05-30T02:38:55.273Z,99.99
2019-05-30T02:39:59.935Z,99.99
2019-05-30T02:40:55.263Z,99.99
2019-05-30T02:41:55.009Z,99.99
2019-05-30T02:42:55.270Z,99.99
2019-05-30T02:43:54.995Z,99.99
2019-05-30T02:44:55.233Z,99.99
2019-05-30T02:45:55.224Z,99.99
2019-05-30T02:46:54.998Z,99.99
2019-05-30T02:47:54.997Z,99.99
2019-05-30T02:49:02.596Z,99.99
2019-05-30T02:49:54.952Z,99.99
2019-05-30T02:50:55.235Z,99.99
2019-05-30T02:51:54.950Z,99.99
2019-05-30T02:52:54.937Z,99.99
2019-05-30T02:53:55.166Z,99.99
2019-05-30T02:54:55.963Z,99.99
2019-05-30T02:55:55.163Z,99.99
2019-05-30T02:56:54.920Z,99.99
2019-05-30T02:57:55.243Z,99.99
2019-05-30T02:58:55.141Z,99.99
2019-05-30T02:59:55.144Z,99.99
2019-05-30T03:00:55.134Z,99.99
2019-05-30T03:02:08.769Z,99.99
2019-05-30T03:02:55.146Z,99.99
2019-05-30T03:03:55.115Z,99.99
2019-05-30T03:04:55.125Z,99.99
2019-05-30T03:05:55.100Z,99.99
2019-05-30T03:06:55.108Z,99.99
2019-05-30T03:07:55.137Z,99.99
2019-05-30T03:08:55.101Z,99.99
2019-05-30T03:09:54.858Z,99.99
2019-05-30T03:10:55.077Z,99.99
2019-05-30T03:11:55.089Z,99.99
2019-05-30T03:12:55.053Z,99.99
2019-05-30T03:13:55.066Z,99.99
2019-05-30T03:14:55.047Z,99.99
2019-05-30T03:15:54.795Z,99.99
2019-05-30T03:16:55.049Z,99.99
2019-05-30T03:17:55.118Z,99.99
2019-05-30T03:18:55.018Z,99.99
2019-05-30T03:19:54.778Z,99.99
2019-05-30T03:20:54.748Z,99.99
2019-05-30T03:21:55.015Z,99.99
2019-05-30T03:22:55.003Z,99.99
2019-05-30T03:23:55.011Z,99.99
2019-05-30T03:24:55.018Z,99.99
2019-05-30T03:25:54.966Z,99.99
2019-05-30T03:26:54.729Z,99.99
2019-05-30T03:27:54.956Z,99.99
2019-05-30T03:28:56.043Z,99.99
2019-05-30T03:29:54.950Z,99.99
2019-05-30T03:30:54.951Z,99.99
2019-05-30T03:31:54.954Z,99.99
2019-05-30T03:33:39.924Z,99.99
2019-05-30T03:34:28.636Z,99.99
2019-05-30T03:35:31.466Z,99.99
2019-05-30T03:36:31.645Z,99.99
2019-05-30T03:37:30.622Z,99.99
2019-05-30T03:38:15.951Z,99.99
2019-05-30T03:39:17.481Z,99.99
2019-05-30T03:40:13.419Z,99.99
2019-05-30T03:41:14.339Z,99.99
2019-05-30T03:42:16.035Z,99.99
2019-05-30T03:43:16.094Z,99.99
2019-05-30T03:44:16.254Z,99.99
2019-05-30T03:45:16.703Z,99.99
2019-05-30T03:46:15.333Z,99.99
2019-05-30T03:47:15.849Z,99.99
2019-05-30T03:48:16.389Z,99.99
2019-05-30T03:49:15.220Z,99.99
2019-05-30T03:50:17.580Z,99.99
2019-05-30T03:51:15.391Z,99.99
2019-05-30T03:52:19.182Z,99.99
2019-05-30T03:53:16.262Z,99.99
2019-05-30T03:54:16.176Z,99.99
2019-05-30T03:55:16.773Z,99.99
2019-05-30T03:56:15.897Z,99.99
2019-05-30T03:57:15.888Z,99.99
2019-05-30T03:58:17.506Z,99.99
2019-05-30T03:59:15.518Z,99.99
2019-05-30T04:00:16.037Z,99.99
2019-05-30T04:01:15.785Z,99.99
2019-05-30T04:02:16.064Z,99.99
2019-05-30T04:03:15.642Z,99.99
2019-05-30T04:04:16.637Z,99.99
2019-05-30T04:05:16.153Z,99.99
2019-05-30T04:06:16.391Z,99.99
2019-05-30T04:07:15.754Z,99.99
2019-05-30T04:08:16.325Z,99.99
2019-05-30T04:09:21.799Z,99.99
2019-05-30T04:10:15.947Z,99.99
2019-05-30T04:11:16.796Z,99.99
2019-05-30T04:12:16.771Z,99.99
2019-05-30T04:13:16.974Z,99.99
2019-05-30T04:14:15.855Z,99.99
2019-05-30T04:15:17.105Z,99.99
2019-05-30T04:16:15.594Z,99.99
2019-05-30T04:17:18.231Z,99.99
2019-05-30T04:18:16.633Z,99.99
2019-05-30T04:19:17.792Z,99.99
2019-05-30T04:20:17.739Z,99.99
2019-05-30T04:21:16.596Z,99.99
2019-05-30T04:22:15.492Z,99.99
2019-05-30T04:23:16.433Z,99.99
2019-05-30T04:24:16.591Z,99.99
2019-05-30T04:25:14.687Z,99.99
2019-05-30T04:26:15.679Z,99.99
2019-05-30T04:27:16.137Z,99.99
2019-05-30T04:28:16.080Z,99.99
2019-05-30T04:29:16.693Z,99.99
2019-05-30T04:30:14.800Z,99.99
2019-05-30T04:31:16.936Z,99.99
2019-05-30T04:32:16.450Z,99.99
2019-05-30T04:34:16.827Z,99.99
2019-05-30T04:35:14.701Z,99.99
2019-05-30T04:36:16.819Z,99.57
2019-05-30T04:37:14.875Z,98.03
2019-05-30T04:38:14.539Z,97.66
2019-05-30T04:39:15.193Z,97.61
2019-05-30T04:40:15.342Z,95.03
2019-05-30T04:41:15.717Z,94.55
2019-05-30T04:42:15.903Z,95.32
2019-05-30T04:43:13.523Z,94.84
2019-05-30T04:44:16.257Z,94.46
2019-05-30T04:45:15.922Z,94.93
2019-05-30T04:46:16.704Z,93.7
2019-05-30T04:47:15.973Z,94.93
2019-05-30T04:48:14.521Z,95.12
2019-05-30T04:49:16.643Z,94.17
2019-05-30T04:50:16.161Z,92.69
2019-05-30T04:51:16.412Z,91.83
2019-05-30T04:52:22.593Z,90.97
2019-05-30T04:53:16.202Z,90.39
2019-05-30T04:54:16.599Z,89.87
2019-05-30T04:55:17.805Z,89.01
2019-05-30T04:56:16.852Z,87.66
2019-05-30T04:57:14.992Z,88.05
2019-05-30T04:58:15.740Z,86.9
2019-05-30T04:59:14.950Z,86.18
2019-05-30T05:00:15.070Z,85.13
2019-05-30T05:01:15.288Z,84.75
2019-05-30T05:02:15.740Z,84.08
2019-05-30T05:03:15.269Z,84.94
2019-05-30T05:04:15.341Z,85.99
2019-05-30T05:05:18.825Z,85.71
2019-05-30T05:06:15.653Z,84.55
2019-05-30T05:07:15.550Z,85.41
2019-05-30T05:08:15.707Z,85.61
2019-05-30T05:09:15.842Z,85.22
2019-05-30T05:10:15.892Z,85.03
2019-05-30T05:11:20.773Z,86.61
2019-05-30T05:12:14.395Z,87.38
2019-05-30T05:13:14.586Z,89.06
2019-05-30T05:14:14.693Z,90.59
2019-05-30T05:15:14.494Z,90.11
2019-05-30T05:16:35.218Z,89.01
2019-05-30T05:17:12.828Z,88.15
2019-05-30T05:18:13.104Z,86.61
2019-05-30T05:19:12.921Z,86.37
2019-05-30T05:20:13.202Z,84.94
2019-05-30T05:21:13.073Z,83.69
2019-05-30T05:22:13.095Z,82.2
2019-05-30T05:23:13.117Z,81.34
2019-05-30T05:24:13.386Z,80.33
2019-05-30T05:25:13.329Z,79.75
2019-05-30T05:26:13.391Z,78.36
2019-05-30T05:27:13.543Z,76.82
2019-05-30T05:28:13.629Z,75.71
2019-05-30T05:29:13.944Z,75.23
2019-05-30T05:30:13.948Z,75.04
2019-05-30T05:31:14.303Z,74.37
2019-05-30T05:32:13.998Z,73.74
2019-05-30T05:33:14.425Z,72.78
2019-05-30T05:34:14.399Z,72.05
2019-05-30T05:35:13.097Z,70.9
2019-05-30T05:36:12.841Z,71.28
2019-05-30T05:37:13.097Z,70.32
2019-05-30T05:38:13.095Z,70.8
2019-05-30T05:39:12.858Z,70.03
2019-05-30T05:40:12.854Z,70.32
2019-05-30T05:41:12.863Z,70.76
2019-05-30T05:42:13.146Z,71.92
2019-05-30T05:43:12.864Z,72.68
2019-05-30T05:44:13.112Z,72.97
2019-05-30T05:45:12.870Z,72.11
2019-05-30T05:46:13.596Z,72.2
2019-05-30T05:47:13.125Z,71.92
2019-05-30T05:48:13.133Z,71.25
2019-05-30T05:49:13.125Z,71.05
2019-05-30T05:50:12.881Z,71.19
2019-05-30T05:51:13.180Z,70.23
2019-05-30T05:52:14.640Z,69.01
2019-05-30T05:53:12.885Z,68.15
2019-05-30T05:54:13.204Z,68.73
2019-05-30T05:55:13.147Z,69.56
2019-05-30T05:56:12.911Z,69.97
2019-05-30T05:57:13.149Z,69.84
2019-05-30T05:58:13.168Z,68.53
2019-05-30T05:59:13.161Z,68.24
2019-05-30T06:00:13.157Z,67.86
2019-05-30T06:01:12.905Z,66.55
2019-05-30T06:02:13.198Z,65.62
2019-05-30T06:03:13.164Z,64.76
2019-05-30T06:04:17.045Z,64.18
2019-05-30T06:05:13.172Z,64.12
2019-05-30T06:06:12.918Z,63.83
2019-05-30T06:07:13.176Z,62.13
2019-05-30T06:08:12.930Z,61.46
2019-05-30T06:09:12.935Z,61.46
2019-05-30T06:10:13.197Z,61.55
2019-05-30T06:11:12.952Z,62.03
2019-05-30T06:12:14.593Z,63.35
2019-05-30T06:13:13.200Z,64.12
2019-05-30T06:14:13.212Z,64.28
2019-05-30T06:15:13.213Z,64.76
2019-05-30T06:16:13.216Z,64.56
2019-05-30T06:17:12.971Z,64.98
2019-05-30T06:18:13.223Z,63.83
2019-05-30T06:19:12.978Z,63.54
2019-05-30T06:20:13.280Z,62.9
2019-05-30T06:21:12.982Z,62.03
2019-05-30T06:22:12.986Z,61.94
2019-05-30T06:23:13.233Z,61.36
2019-05-30T06:24:13.242Z,61.19
2019-05-30T06:25:13.251Z,60.42
2019-05-30T06:26:13.006Z,60.42
2019-05-30T06:27:13.000Z,58.82
2019-05-30T06:28:13.005Z,58.08
2019-05-30T06:29:13.262Z,57.5
2019-05-30T06:30:13.259Z,56.27
2019-05-30T06:31:13.270Z,56.09
2019-05-30T06:32:13.283Z,56.27
2019-05-30T06:33:13.284Z,55.79
2019-05-30T06:34:28.124Z,55.99
2019-05-30T06:35:13.285Z,56.37
2019-05-30T06:36:13.294Z,56.73
2019-05-30T06:37:14.640Z,57.31
2019-05-30T06:38:13.337Z,57.98
2019-05-30T06:39:13.058Z,57.5
2019-05-30T06:40:13.363Z,57.79
2019-05-30T06:41:13.076Z,58.05
2019-05-30T06:42:13.326Z,58.34
2019-05-30T06:43:13.354Z,59.69
2019-05-30T06:44:13.326Z,59.94
2019-05-30T06:45:13.085Z,59.75
2019-05-30T06:46:13.345Z,60.42
2019-05-30T06:47:13.380Z,60.42
2019-05-30T06:48:13.423Z,60.04
2019-05-30T06:49:13.353Z,59.66
2019-05-30T06:50:13.145Z,59.37
2019-05-30T06:51:16.874Z,59.78
2019-05-30T06:52:13.365Z,59.2
2019-05-30T06:53:13.459Z,58.53
2019-05-30T06:54:13.376Z,58.53
2019-05-30T06:55:13.384Z,58.44
2019-05-30T06:56:13.130Z,57.89
2019-05-30T06:57:13.401Z,57.5
2019-05-30T06:58:13.141Z,56.37
2019-05-30T06:59:13.414Z,56.47
2019-05-30T07:00:13.414Z,54.66
2019-05-30T07:01:13.471Z,54.76
2019-05-30T07:02:13.420Z,53.99
2019-05-30T07:03:13.358Z,54.02
2019-05-30T07:04:14.301Z,54.02
2019-05-30T07:05:15.113Z,53.83
2019-05-30T07:06:14.514Z,53.37
2019-05-30T07:07:13.707Z,51.73
2019-05-30T07:08:13.437Z,51.75
2019-05-30T07:09:13.443Z,52.43
2019-05-30T07:10:13.459Z,52.53
2019-05-30T07:11:13.457Z,51.65
2019-05-30T07:12:14.438Z,51.95
2019-05-30T07:13:13.485Z,52.23
2019-05-30T07:14:13.495Z,52.72
2019-05-30T07:15:13.302Z,51.65
2019-05-30T07:16:13.233Z,52.04
2019-05-30T07:17:13.234Z,51.95
2019-05-30T07:18:13.495Z,52.11
2019-05-30T07:19:13.506Z,51.65
2019-05-30T07:20:13.516Z,51.85
2019-05-30T07:21:13.503Z,50.91
2019-05-30T07:22:13.506Z,51.39
2019-05-30T07:23:13.270Z,51.01
2019-05-30T07:24:13.282Z,50.81
2019-05-30T07:25:13.526Z,51.01
2019-05-30T07:26:13.293Z,50.55
2019-05-30T07:27:13.539Z,50.35
2019-05-30T07:28:13.347Z,49.97
2019-05-30T07:29:13.553Z,49.77
2019-05-30T07:30:13.560Z,50.35
2019-05-30T07:31:13.312Z,49.97
2019-05-30T07:32:15.748Z,49
2019-05-30T07:33:13.333Z,49.7
2019-05-30T07:34:13.614Z,49.41
2019-05-30T07:35:13.590Z,48.25
2019-05-30T07:36:13.583Z,48.54
2019-05-30T07:37:13.593Z,48.16
2019-05-30T07:38:13.592Z,48.37
2019-05-30T07:39:13.351Z,48.27
2019-05-30T07:40:13.604Z,47.79
2019-05-30T07:41:13.611Z,47.11
2019-05-30T07:42:13.620Z,47.24
2019-05-30T07:43:13.623Z,47.33
2019-05-30T07:44:13.652Z,47.04
2019-05-30T07:45:13.654Z,47.24
2019-05-30T07:46:13.654Z,47.14
2019-05-30T07:47:13.647Z,46.75
2019-05-30T07:48:13.404Z,46.77
2019-05-30T07:49:13.422Z,46.87
2019-05-30T07:50:13.664Z,46.87
2019-05-30T07:51:13.419Z,45.9
2019-05-30T07:52:13.435Z,46.67
2019-05-30T07:53:13.685Z,46
2019-05-30T07:54:13.461Z,44.86
2019-05-30T07:55:13.450Z,44.88
2019-05-30T07:56:13.447Z,44.3
2019-05-30T07:57:13.456Z,44.23
2019-05-30T07:58:13.503Z,45.07
2019-05-30T07:59:13.723Z,45.27
2019-05-30T08:00:13.734Z,45.54
2019-05-30T08:01:13.743Z,44.68
2019-05-30T08:02:13.729Z,45.65
2019-05-30T08:03:13.741Z,45.54
2019-05-30T08:04:13.787Z,45.44
2019-05-30T08:05:26.733Z,46.31
2019-05-30T08:06:13.765Z,45.64
2019-05-30T08:07:13.768Z,46.89
2019-05-30T08:08:13.521Z,47.33
2019-05-30T08:09:13.786Z,47.91
2019-05-30T08:10:13.786Z,47.14
2019-05-30T08:11:13.817Z,48.01
2019-05-30T08:12:13.794Z,48.3
2019-05-30T08:13:13.800Z,48.47
2019-05-30T08:14:13.807Z,49.24
2019-05-30T08:15:13.842Z,49.63
2019-05-30T08:16:13.822Z,49.63
2019-05-30T08:17:13.828Z,49.82
2019-05-30T08:18:13.586Z,50.12
2019-05-30T08:19:13.854Z,50.57
2019-05-30T08:20:13.887Z,50.76
2019-05-30T08:21:13.641Z,50.4
2019-05-30T08:22:13.947Z,50.31
2019-05-30T08:23:13.613Z,50.7
2019-05-30T08:24:13.872Z,49.34
2019-05-30T08:25:13.650Z,50.4
2019-05-30T08:26:13.878Z,50.02
2019-05-30T08:27:13.639Z,49.82
2019-05-30T08:28:13.943Z,49.92
2019-05-30T08:29:13.894Z,50.31
2019-05-30T08:30:13.939Z,49.73
2019-05-30T08:31:13.979Z,49.34
2019-05-30T08:32:13.928Z,48.95
2019-05-30T08:33:13.923Z,48.86
2019-05-30T08:34:13.922Z,47.62
2019-05-30T08:35:13.691Z,46.84
2019-05-30T08:36:13.965Z,46.58
2019-05-30T08:37:13.688Z,45.42
2019-05-30T08:38:14.055Z,45.32
2019-05-30T08:39:14.144Z,44.84
2019-05-30T08:40:13.952Z,44.18
2019-05-30T08:41:13.960Z,43.89
2019-05-30T08:42:13.729Z,43.04
2019-05-30T08:43:14.273Z,42.38
2019-05-30T08:44:13.985Z,40.85
2019-05-30T08:45:13.983Z,41.72
2019-05-30T08:46:14.000Z,40.95
2019-05-30T08:47:13.747Z,40.83
2019-05-30T08:48:14.006Z,41
2019-05-30T08:49:13.760Z,41.76
2019-05-30T08:50:14.018Z,42.51
2019-05-30T08:51:14.031Z,43.29
2019-05-30T08:52:14.028Z,45.59
2019-05-30T08:53:14.052Z,46.25
2019-05-30T08:54:16.496Z,45.74
2019-05-30T08:55:14.050Z,47.91
2019-05-30T08:56:14.049Z,50.59
2019-05-30T08:57:14.064Z,51.05
2019-05-30T08:58:13.817Z,51.12
2019-05-30T08:59:14.084Z,52.73
2019-05-30T09:00:14.091Z,52.35
2019-05-30T09:01:14.083Z,52.25
2019-05-30T09:02:14.088Z,51.39
2019-05-30T09:03:14.091Z,51.2
2019-05-30T09:04:14.094Z,51.97
2019-05-30T09:05:14.106Z,51.1
2019-05-30T09:06:14.123Z,50.3
2019-05-30T09:07:14.102Z,51.56
2019-05-30T09:08:14.111Z,50.3
2019-05-30T09:09:13.871Z,51.14
2019-05-30T09:10:14.115Z,52.11
2019-05-30T09:11:14.127Z,52.27
2019-05-30T09:12:14.144Z,53.53
2019-05-30T09:13:14.490Z,52.37
2019-05-30T09:14:14.150Z,52.34
2019-05-30T09:15:13.912Z,54.46
2019-05-30T09:16:14.154Z,54.65
2019-05-30T09:17:14.154Z,54.75
2019-05-30T09:18:14.155Z,54.85
2019-05-30T09:19:13.905Z,54.56
2019-05-30T09:20:14.159Z,55.04
2019-05-30T09:21:14.161Z,53.59
2019-05-30T09:22:13.951Z,52.15
2019-05-30T09:23:13.914Z,53.31
2019-05-30T09:24:14.227Z,53.5
2019-05-30T09:25:14.227Z,53.98
2019-05-30T09:26:14.178Z,53.78
2019-05-30T09:27:14.174Z,53.5
2019-05-30T09:28:14.177Z,51.79
2019-05-30T09:29:13.932Z,53.23
2019-05-30T09:30:14.176Z,53.23
2019-05-30T09:31:14.185Z,53.23
2019-05-30T09:32:13.945Z,54.2
2019-05-30T09:33:14.192Z,53.14
2019-05-30T09:34:14.647Z,51.21
2019-05-30T09:35:14.192Z,49.89
2019-05-30T09:36:16.220Z,49.79
2019-05-30T09:37:14.242Z,49.12
2019-05-30T09:38:14.210Z,49.79
2019-05-30T09:39:13.950Z,50.37
2019-05-30T09:40:13.954Z,50.27
2019-05-30T09:41:13.948Z,50.47
2019-05-30T09:42:13.966Z,48.95
2019-05-30T09:43:14.207Z,48.11
2019-05-30T09:44:14.207Z,48.01
2019-05-30T09:45:14.210Z,50.4
2019-05-30T09:46:14.213Z,51.07
2019-05-30T09:47:14.217Z,50.71
2019-05-30T09:48:14.217Z,47.99
2019-05-30T09:49:13.976Z,48.57
2019-05-30T09:50:14.224Z,49.65
2019-05-30T09:51:13.974Z,49.17
2019-05-30T09:52:14.237Z,49.82
2019-05-30T09:53:14.262Z,49.91
2019-05-30T09:54:13.981Z,48.38
2019-05-30T09:55:14.227Z,46.64
2019-05-30T09:56:14.241Z,47.12
2019-05-30T09:57:14.243Z,47.89
2019-05-30T09:58:13.995Z,49.73
2019-05-30T09:59:14.251Z,49.82
2019-05-30T10:00:14.258Z,50.01
2019-05-30T10:01:14.011Z,49.34
2019-05-30T10:02:14.254Z,45.97
2019-05-30T10:03:14.270Z,47.8
2019-05-30T10:04:14.257Z,45.58
2019-05-30T10:05:14.267Z,43.46
2019-05-30T10:06:30.787Z,44.64
2019-05-30T10:07:14.278Z,44.52
2019-05-30T10:08:14.015Z,45.77
2019-05-30T10:09:14.267Z,44.62
2019-05-30T10:10:14.300Z,44.49
2019-05-30T10:11:16.126Z,44.59
2019-05-30T10:12:14.268Z,44.49
2019-05-30T10:13:14.281Z,46.98
2019-05-30T10:14:14.033Z,48.52
2019-05-30T10:15:14.028Z,49.02
2019-05-30T10:16:14.283Z,46.14
2019-05-30T10:17:14.041Z,45.17
2019-05-30T10:18:14.285Z,46.62
2019-05-30T10:19:14.291Z,46.91
2019-05-30T10:20:14.291Z,44.4
2019-05-30T10:21:14.290Z,43.24
2019-05-30T10:22:14.043Z,43.07
2019-05-30T10:23:14.290Z,42.28
2019-05-30T10:24:14.055Z,42.59
2019-05-30T10:25:14.290Z,43.65
2019-05-30T10:26:14.354Z,43.55
2019-05-30T10:27:14.052Z,43.92
2019-05-30T10:28:14.301Z,48.16
2019-05-30T10:29:14.053Z,48.64
2019-05-30T10:30:14.319Z,46.71
2019-05-30T10:31:14.057Z,48.44
2019-05-30T10:32:14.310Z,48.83
2019-05-30T10:33:14.324Z,49.32
2019-05-30T10:34:14.350Z,46.62
2019-05-30T10:35:14.320Z,45.63
2019-05-30T10:36:19.961Z,45.83
2019-05-30T10:37:14.320Z,46.01
2019-05-30T10:38:14.095Z,46.98
2019-05-30T10:39:14.325Z,47.65
2019-05-30T10:40:14.083Z,46.42
2019-05-30T10:41:14.330Z,46.42
2019-05-30T10:42:14.334Z,46.42
2019-05-30T10:43:14.332Z,46.42
2019-05-30T10:44:14.237Z,46.04
2019-05-30T10:45:14.352Z,46.25
2019-05-30T10:46:14.089Z,45.58
2019-05-30T10:47:14.343Z,45.48
2019-05-30T10:48:14.386Z,44.71
2019-05-30T10:49:14.341Z,44.81
2019-05-30T10:50:14.097Z,45.77
2019-05-30T10:51:14.102Z,46.06
2019-05-30T10:52:14.105Z,46.15
2019-05-30T10:53:14.117Z,45.68
2019-05-30T10:54:14.367Z,46.15
2019-05-30T10:55:14.125Z,46.06
2019-05-30T10:56:14.115Z,44.62
2019-05-30T10:57:14.114Z,45.2
2019-05-30T10:58:14.365Z,45.58
2019-05-30T10:59:14.114Z,45
2019-05-30T11:00:14.366Z,46.18
2019-05-30T11:01:14.117Z,48.52
2019-05-30T11:02:14.374Z,45.92
2019-05-30T11:03:14.133Z,44.95
2019-05-30T11:04:14.129Z,44.46
2019-05-30T11:05:14.380Z,44.01
2019-05-30T11:06:14.139Z,43.04
2019-05-30T11:07:14.434Z,44.97
2019-05-30T11:08:14.389Z,43.33
2019-05-30T11:09:14.393Z,41.69
2019-05-30T11:10:14.395Z,42.77
2019-05-30T11:11:14.152Z,42.68
2019-05-30T11:12:14.432Z,42.1
2019-05-30T11:13:14.658Z,43.37
2019-05-30T11:14:14.708Z,41.44
2019-05-30T11:15:14.154Z,41.63
2019-05-30T11:16:14.416Z,43.76
2019-05-30T11:17:14.415Z,40.96
2019-05-30T11:18:14.172Z,39.9
2019-05-30T11:19:14.449Z,39.78
2019-05-30T11:20:14.435Z,39.76
2019-05-30T11:21:14.434Z,40.63
2019-05-30T11:22:14.430Z,40.72
2019-05-30T11:23:14.190Z,42.93
2019-05-30T11:24:14.285Z,44.66
2019-05-30T11:25:14.444Z,45.24
2019-05-30T11:26:14.436Z,42.73
2019-05-30T11:27:14.441Z,43.98
2019-05-30T11:28:14.193Z,41.6
2019-05-30T11:29:14.258Z,41.57
2019-05-30T11:30:14.446Z,41.4
2019-05-30T11:31:14.458Z,41.48
2019-05-30T11:32:14.454Z,42.27
2019-05-30T11:33:14.462Z,42.36
2019-05-30T11:34:14.471Z,41.2
2019-05-30T11:35:14.216Z,41.6
2019-05-30T11:36:14.474Z,42.56
2019-05-30T11:37:21.257Z,43.04
2019-05-30T11:38:14.477Z,41.5
2019-05-30T11:39:14.487Z,41.6
2019-05-30T11:40:14.480Z,41.3
2019-05-30T11:41:14.251Z,41.02
2019-05-30T11:42:14.497Z,42.46
2019-05-30T11:43:14.491Z,43.74
2019-05-30T11:44:14.671Z,41.23
2019-05-30T11:45:14.502Z,40.77
2019-05-30T11:46:14.502Z,40.28
2019-05-30T11:47:14.512Z,39.51
2019-05-30T11:48:14.270Z,39.51
2019-05-30T11:49:14.526Z,38.83
2019-05-30T11:50:15.534Z,39.7
2019-05-30T11:51:14.518Z,42.6
2019-05-30T11:52:14.273Z,44.03
2019-05-30T11:53:14.532Z,43.45
2019-05-30T11:54:14.527Z,43.14
2019-05-30T11:55:14.288Z,42.94
2019-05-30T11:56:14.580Z,41.69
2019-05-30T11:57:14.557Z,41.2
2019-05-30T11:58:19.022Z,41.6
2019-05-30T11:59:14.352Z,40.72
2019-05-30T12:00:14.541Z,40.53
2019-05-30T12:01:14.296Z,42.08
2019-05-30T12:02:14.301Z,45.24
2019-05-30T12:03:14.560Z,41.19
2019-05-30T12:04:14.568Z,45.7
2019-05-30T12:05:14.563Z,44.15
2019-05-30T12:06:14.356Z,45.6
2019-05-30T12:07:14.576Z,44.32
2019-05-30T12:08:14.316Z,44.32
2019-05-30T12:09:17.075Z,45.97
2019-05-30T12:10:14.580Z,43.85
2019-05-30T12:11:14.337Z,41.72
2019-05-30T12:12:14.574Z,42.02
2019-05-30T12:13:14.581Z,42.97
2019-05-30T12:14:14.344Z,42.21
2019-05-30T12:15:14.597Z,42.21
2019-05-30T12:16:14.593Z,42.69
2019-05-30T12:17:14.601Z,43.07
2019-05-30T12:18:14.598Z,43.1
2019-05-30T12:19:14.600Z,42.03
2019-05-30T12:20:14.344Z,41.55
2019-05-30T12:21:14.597Z,41.46
2019-05-30T12:22:14.361Z,41.28
2019-05-30T12:23:14.357Z,40.9
2019-05-30T12:24:14.611Z,40.61
2019-05-30T12:25:14.615Z,39.74
2019-05-30T12:26:14.388Z,40.53
2019-05-30T12:27:14.381Z,39.84
2019-05-30T12:28:14.627Z,41.77
2019-05-30T12:29:14.611Z,42.35
2019-05-30T12:30:14.375Z,41.67
2019-05-30T12:31:14.373Z,41.3
2019-05-30T12:32:14.621Z,41.78
2019-05-30T12:33:14.617Z,41.02
2019-05-30T12:34:14.638Z,40.72
2019-05-30T12:35:14.636Z,39.76
2019-05-30T12:36:14.498Z,39.57
2019-05-30T12:37:14.393Z,39.29
2019-05-30T12:38:14.393Z,38.23
2019-05-30T12:39:14.409Z,37.29
2019-05-30T12:40:14.655Z,37.58
2019-05-30T12:41:14.640Z,37.95
2019-05-30T12:42:14.397Z,38.53
2019-05-30T12:43:14.663Z,38.83
2019-05-30T12:44:14.406Z,38.25
2019-05-30T12:45:14.408Z,37.27
2019-05-30T12:46:14.665Z,37.19
2019-05-30T12:47:14.672Z,37.38
2019-05-30T12:48:14.669Z,36.52
2019-05-30T12:49:14.420Z,37.46
2019-05-30T12:50:16.636Z,38.04
2019-05-30T12:51:14.421Z,40.84
2019-05-30T12:52:14.694Z,40.07
2019-05-30T12:53:14.677Z,38.71
2019-05-30T12:54:14.431Z,37.17
2019-05-30T12:55:14.687Z,38.06